Flight Track Log - Related Links

Times and Time Zones

All times are in EDT time to prevent confusion due to time zone crossing. See the AWE1897 flight status page for this flight to view local times or setup timezone preferences in your user account.

Time Position Orientation Groundspeed Altitude Reporting Facility
EDT Latitude Longitude Course Direction KTS MPH feet Rate Location/Type
Wed 08:21:32 PM 39.1833 -76.7500 211° Southwest 184 212 2,000  Level Potomac TRACON
Wed 08:22:32 PM 39.1833 -76.8167 270° West 224 258 4,200 2,381 Climbing Potomac TRACON
Wed 08:23:00 PM 39.2000 -77.0212 270° West  Level FlightAware Approximate
Wed 08:23:38 PM 39.2167 -76.9167 293° West 272 313 7,000  Level Potomac TRACON
Wed 08:24:00 PM 39.2000 -77.1426 270° West  Level FlightAware Approximate
Wed 08:24:32 PM 39.2167 -77.0000 270° West 268 308 9,600  Level Potomac TRACON
Wed 08:25:00 PM 39.1258 -77.2115 211° Southwest  Level FlightAware Approximate
Wed 08:25:32 PM 39.2167 -77.1167 270° West 295 339 11,800  Level Potomac TRACON
Wed 08:26:00 PM 39.0452 -77.2741 211° Southwest  Level FlightAware Approximate
Wed 08:26:32 PM 39.1667 -77.2000 232° Southwest 317 365 14,000  Level Potomac TRACON
Wed 08:27:32 PM 39.0833 -77.2333 197° South 332 382 16,100 1,750 Climbing Potomac TRACON
Wed 08:28:32 PM 38.9833 -77.2833 201° Southwest 357 411 17,500 1,632 Climbing Potomac TRACON
Wed 08:29:26 PM 38.9000 -77.3167 197° South 378 435 19,200 1,636 Climbing Potomac TRACON
Wed 08:31:17 PM 38.7344 -77.4386 210° Southwest 383 441 22,000 1,535 Climbing Washington Center
Wed 08:32:18 PM 38.6497 -77.5269 219° Southwest 383 441 23,600 1,450 Climbing Washington Center
Wed 08:33:17 PM 38.5650 -77.6122 218° Southwest 389 448 24,900 1,059 Climbing Washington Center
Wed 08:34:17 PM 38.4736 -77.7025 218° Southwest 408 470 25,700 1,091 Climbing Washington Center
Wed 08:35:18 PM 38.3825 -77.7928 218° Southwest 418 481 27,100 1,240 Climbing Washington Center
Wed 08:36:18 PM 38.2869 -77.8878 218° Southwest 429 494 28,200 1,041 Climbing Washington Center
Wed 08:37:19 PM 38.1972 -77.9908 222° Southwest 435 501 29,200 1,091 Climbing Washington Center
Wed 08:38:19 PM 38.1075 -78.0933 222° Southwest 441 507 30,400 1,119 Climbing Washington Center
Wed 08:39:17 PM 38.0350 -78.1753 222° Southwest 441 507 31,400 807 Climbing Washington Center
Wed 08:40:18 PM 37.9281 -78.2956 222° Southwest 441 507 32,000 295 Climbing Washington Center
Wed 08:41:19 PM 37.8361 -78.3972 221° Southwest 441 507 32,000  Level Washington Center
Wed 08:42:19 PM 37.7439 -78.4964 220° Southwest 441 507 32,000  Level Washington Center
Wed 08:43:17 PM 37.6517 -78.6031 222° Southwest 446 513 32,000  Level Washington Center
Wed 08:44:18 PM 37.5572 -78.7042 220° Southwest 446 513 32,000  Level Washington Center
Wed 08:45:19 PM 37.4733 -78.7975 221° Southwest 446 513 32,000  Level Washington Center
Wed 08:46:17 PM 37.3789 -78.9006 221° Southwest 446 513 32,000  Level Washington Center
Wed 08:47:19 PM 37.2842 -79.0011 220° Southwest 446 513 32,000  Level Washington Center
Wed 08:48:19 PM 37.1894 -79.1036 221° Southwest 446 513 32,000  Level Washington Center
Wed 08:49:17 PM 37.0967 -79.2061 221° Southwest 451 519 32,000  Level Washington Center
Wed 08:50:18 PM 36.9931 -79.3183 221° Southwest 451 519 32,000  Level Washington Center
Wed 08:51:18 PM 36.9003 -79.4203 221° Southwest 445 512 32,000 -50 Level Washington Center
Wed 08:52:18 PM 36.8053 -79.5194 220° Southwest 445 512 31,900 -446 Descending Washington Center
Wed 08:53:19 PM 36.7122 -79.6208 221° Southwest 450 518 31,100 -900 Descending Washington Center
Wed 08:54:18 PM 36.6183 -79.7219 221° Southwest 455 524 30,100 -1,462 Descending Atlanta Center
Wed 08:55:18 PM 36.5319 -79.8092 219° Southwest 431 496 28,200 -2,200 Descending Atlanta Center
Wed 08:56:18 PM 36.4392 -79.9019 219° Southwest 431 496 25,700 -2,300 Descending Atlanta Center
Wed 08:57:18 PM 36.3333 -79.9872 213° Southwest 426 490 23,600 -1,900 Descending Atlanta Center
Wed 08:58:18 PM 36.2422 -80.0639 214° Southwest 414 476 21,900 -1,700 Descending Atlanta Center
Wed 08:59:18 PM 36.1550 -80.1403 215° Southwest 403 464 20,200 -1,750 Descending Atlanta Center
Wed 09:00:18 PM 36.0653 -80.2139 214° Southwest 398 458 18,400 -1,750 Descending Atlanta Center
Wed 09:01:18 PM 35.9903 -80.2817 216° Southwest 386 444 16,700 -1,696 Descending Atlanta Center
Wed 09:01:50 PM 35.9375 -80.3303 217° Southwest 365 420 15,800 -1,290 Descending Atlanta Center
Wed 09:02:51 PM 35.8603 -80.3978 215° Southwest 334 384 14,700 -1,328 Descending Atlanta Center
Wed 09:03:52 PM 35.7869 -80.4600 215° Southwest 313 360 13,100 -1,574 Descending Atlanta Center
Wed 09:04:53 PM 35.7136 -80.5194 213° Southwest 314 361 11,500 -1,377 Descending Atlanta Center
Wed 09:05:54 PM 35.6331 -80.5458 195° South 291 335 10,300 -1,587 Descending Atlanta Center
Wed 09:06:54 PM 35.5544 -80.5697 194° South 271 312 8,300 -1,623 Descending Atlanta Center
Wed 09:07:56 PM 35.4842 -80.5956 197° South 264 304 7,000 -879 Descending Atlanta Center
Wed 09:08:50 PM 35.4333 -80.6411 216° Southwest 237 273 6,600 -678 Descending Atlanta Center
Wed 09:09:51 PM 35.3933 -80.6989 230° Southwest 227 261 5,700 -1,230 Descending Atlanta Center
Wed 09:10:52 PM 35.3508 -80.7539 227° Southwest 220 253 4,100 -1,574 Descending Atlanta Center

Login

Don't have an account? Register now (free) for customized features, flight alerts, and more!